createdAt,value
2022-08-18T00:01:10.399Z,23.17
2022-08-18T00:03:55.753Z,23.13
2022-08-18T00:06:28.475Z,23.08
2022-08-18T00:08:57.987Z,23.09
2022-08-18T00:11:26.083Z,23.09
2022-08-18T00:13:53.876Z,23.03
2022-08-18T00:16:23.122Z,23.01
2022-08-18T00:18:51.003Z,22.96
2022-08-18T00:21:19.107Z,22.97
2022-08-18T00:23:46.991Z,22.97
2022-08-18T00:26:14.781Z,22.98
2022-08-18T00:28:42.643Z,22.96
2022-08-18T00:31:10.464Z,22.96
2022-08-18T00:33:39.611Z,22.96
2022-08-18T00:36:07.418Z,22.95
2022-08-18T00:38:35.190Z,22.95
2022-08-18T00:41:03.150Z,22.94
2022-08-18T00:43:36.538Z,22.95
2022-08-18T00:46:08.178Z,22.94
2022-08-18T00:48:36.146Z,22.90
2022-08-18T00:51:11.345Z,22.92
2022-08-18T00:53:45.735Z,22.91
2022-08-18T00:56:17.695Z,22.86
2022-08-18T00:58:50.482Z,22.87
2022-08-18T01:01:23.222Z,22.83
2022-08-18T01:03:55.167Z,22.82
2022-08-18T01:06:32.354Z,22.80
2022-08-18T01:09:01.771Z,22.79
2022-08-18T01:11:30.176Z,22.79
2022-08-18T01:13:59.134Z,22.71
2022-08-18T01:16:56.658Z,22.75
2022-08-18T01:19:44.417Z,22.68
2022-08-18T01:22:19.247Z,22.69
2022-08-18T01:25:11.543Z,22.67
2022-08-18T01:27:41.864Z,22.65
2022-08-18T01:30:18.179Z,22.65
2022-08-18T01:32:46.882Z,22.60
2022-08-18T01:35:18.197Z,22.61
2022-08-18T01:37:46.076Z,22.65
2022-08-18T01:41:21.759Z,22.64
2022-08-18T01:43:05.708Z,22.66
2022-08-18T01:45:34.489Z,22.65
2022-08-18T01:48:04.471Z,22.63
2022-08-18T01:50:35.128Z,22.60
2022-08-18T01:53:05.456Z,22.61
2022-08-18T01:55:35.115Z,22.59
2022-08-18T01:58:03.405Z,22.57
2022-08-18T02:00:32.216Z,22.53
2022-08-18T02:03:02.893Z,22.52
2022-08-18T02:05:34.659Z,22.44
2022-08-18T02:08:03.583Z,22.43
2022-08-18T02:10:32.068Z,22.43
2022-08-18T02:13:01.126Z,22.47
2022-08-18T02:15:29.071Z,22.45
2022-08-18T02:17:56.867Z,22.44
2022-08-18T02:20:25.313Z,22.41
2022-08-18T02:22:53.658Z,22.41
2022-08-18T02:25:21.539Z,22.36
2022-08-18T02:27:49.373Z,22.30
2022-08-18T02:30:20.015Z,22.33
2022-08-18T02:32:48.418Z,22.31
2022-08-18T02:35:16.245Z,22.29
2022-08-18T02:37:47.763Z,22.25
2022-08-18T02:40:16.513Z,22.28
2022-08-18T02:42:44.987Z,22.26
2022-08-18T02:45:13.756Z,22.28
2022-08-18T02:47:44.271Z,22.21
2022-08-18T02:50:12.918Z,22.24
2022-08-18T02:52:41.296Z,22.20
2022-08-18T02:55:10.937Z,22.15
2022-08-18T02:57:43.477Z,22.17
2022-08-18T03:00:15.053Z,22.17
2022-08-18T03:02:48.653Z,22.17
2022-08-18T03:05:16.908Z,22.13
2022-08-18T03:07:45.438Z,22.13
2022-08-18T03:10:31.373Z,22.17
2022-08-18T03:13:01.880Z,22.19
2022-08-18T03:15:29.695Z,22.12
2022-08-18T03:17:59.404Z,22.14
2022-08-18T03:20:30.321Z,22.14
2022-08-18T03:22:59.262Z,22.19
2022-08-18T03:25:27.123Z,22.21
2022-08-18T03:27:54.935Z,22.20
2022-08-18T03:30:23.619Z,22.23
2022-08-18T03:32:52.158Z,22.27
2022-08-18T03:35:21.350Z,22.30
2022-08-18T03:37:49.135Z,22.29
2022-08-18T03:43:23.762Z,22.26
2022-08-18T03:46:03.404Z,22.29
2022-08-18T03:48:33.098Z,22.25
2022-08-18T03:51:09.440Z,22.28
2022-08-18T03:53:41.515Z,22.23
2022-08-18T03:56:17.602Z,22.20
2022-08-18T03:58:47.585Z,22.26
2022-08-18T04:01:26.259Z,22.30
2022-08-18T04:03:57.002Z,22.27
2022-08-18T04:06:30.336Z,22.25
2022-08-18T04:09:01.316Z,22.27
2022-08-18T04:11:29.619Z,22.26
2022-08-18T04:14:03.918Z,22.27
2022-08-18T04:16:33.160Z,22.24
2022-08-18T04:19:03.536Z,22.30
2022-08-18T04:21:34.678Z,22.30
2022-08-18T04:24:09.864Z,22.30
2022-08-18T04:26:50.154Z,22.28
2022-08-18T04:29:21.173Z,22.33
2022-08-18T04:31:50.042Z,22.30
2022-08-18T04:34:18.553Z,22.27
2022-08-18T04:36:47.871Z,22.23
2022-08-18T04:39:15.659Z,22.21
2022-08-18T04:41:44.875Z,22.24
2022-08-18T04:44:14.808Z,22.25
2022-08-18T04:46:46.212Z,22.27
2022-08-18T04:49:14.400Z,22.22
2022-08-18T04:52:26.949Z,22.27
2022-08-18T04:54:38.351Z,22.19
2022-08-18T04:57:11.278Z,22.18
2022-08-18T04:59:41.336Z,22.13
2022-08-18T05:02:14.206Z,22.14
2022-08-18T05:04:47.206Z,22.13
2022-08-18T05:07:18.783Z,22.08
2022-08-18T05:09:48.244Z,22.06
2022-08-18T05:12:17.134Z,22.08
2022-08-18T05:14:46.375Z,22.06
2022-08-18T05:17:16.294Z,22.01
2022-08-18T05:19:45.751Z,22.10
2022-08-18T05:22:18.347Z,22.14
2022-08-18T05:24:48.543Z,22.07
2022-08-18T05:27:16.443Z,22.04
2022-08-18T05:29:46.138Z,22.01
2022-08-18T05:32:30.275Z,21.97
2022-08-18T05:35:06.140Z,21.95
2022-08-18T05:37:43.906Z,21.98
2022-08-18T05:40:15.997Z,22.05
2022-08-18T05:42:44.733Z,22.06
2022-08-18T05:45:16.568Z,22.08
2022-08-18T05:47:44.710Z,22.08
2022-08-18T05:50:16.396Z,22.04
2022-08-18T05:52:52.346Z,22.13
2022-08-18T05:55:47.969Z,22.10
2022-08-18T05:58:34.724Z,22.13
2022-08-18T06:01:05.778Z,22.19
2022-08-18T06:03:45.162Z,22.23
2022-08-18T06:06:18.260Z,22.25
2022-08-18T06:08:51.360Z,22.26
2022-08-18T06:11:22.775Z,22.31
2022-08-18T06:13:54.214Z,22.36
2022-08-18T06:16:39.924Z,22.34
2022-08-18T06:19:25.576Z,22.39
2022-08-18T06:22:03.703Z,22.38
2022-08-18T06:24:39.057Z,22.36
2022-08-18T06:27:17.672Z,22.34
2022-08-18T06:29:55.870Z,22.35
2022-08-18T06:32:36.800Z,22.41
2022-08-18T06:35:18.111Z,22.41
2022-08-18T06:38:16.620Z,22.45
2022-08-18T06:40:44.455Z,22.40
2022-08-18T06:43:17.060Z,22.49
2022-08-18T06:45:52.030Z,22.49
2022-08-18T06:48:28.311Z,22.45
2022-08-18T06:51:00.574Z,22.45
2022-08-18T06:53:53.552Z,22.44
2022-08-18T06:56:26.625Z,22.44
2022-08-18T06:58:56.475Z,22.43
2022-08-18T07:01:25.838Z,22.45
2022-08-18T07:03:58.188Z,22.42
2022-08-18T07:06:31.357Z,22.43
2022-08-18T07:09:24.047Z,22.37
2022-08-18T07:12:07.479Z,22.35
2022-08-18T07:14:46.841Z,22.27
2022-08-18T07:17:22.211Z,22.38
2022-08-18T07:20:20.208Z,22.41
2022-08-18T07:22:57.518Z,22.41
2022-08-18T07:25:30.406Z,22.39
2022-08-18T07:28:01.472Z,22.41
2022-08-18T07:30:34.511Z,22.42
2022-08-18T07:33:12.106Z,22.49
2022-08-18T07:35:45.722Z,22.51
2022-08-18T07:38:41.637Z,22.51
2022-08-18T07:41:15.572Z,22.55
2022-08-18T07:43:53.392Z,22.49
2022-08-18T07:46:28.116Z,22.53
2022-08-18T07:48:58.689Z,22.51
2022-08-18T07:51:37.561Z,22.54
2022-08-18T07:54:31.069Z,22.48
2022-08-18T07:57:07.079Z,22.49
2022-08-18T07:59:44.760Z,22.50
2022-08-18T08:02:29.991Z,22.48
2022-08-18T08:05:07.209Z,22.48
2022-08-18T08:07:43.885Z,22.52
2022-08-18T08:10:32.492Z,22.56
2022-08-18T08:13:12.683Z,22.53
2022-08-18T08:15:50.365Z,22.48
2022-08-18T08:18:26.347Z,22.51
2022-08-18T08:20:58.370Z,22.53
2022-08-18T08:23:31.933Z,22.54
2022-08-18T08:26:23.360Z,22.57
2022-08-18T08:29:02.538Z,22.59
2022-08-18T08:31:39.162Z,22.60
2022-08-18T08:34:15.815Z,22.56
2022-08-18T08:36:46.436Z,22.51
2022-08-18T08:39:22.385Z,22.58
2022-08-18T08:42:29.697Z,22.27
2022-08-18T08:44:59.168Z,22.68
2022-08-18T08:47:33.341Z,22.77
2022-08-18T08:50:05.315Z,22.71
2022-08-18T08:52:42.213Z,22.75
2022-08-18T08:55:16.288Z,22.76
2022-08-18T08:57:49.708Z,22.78
2022-08-18T09:00:17.889Z,22.80
2022-08-18T09:03:00.081Z,22.85
2022-08-18T09:05:35.977Z,22.88
2022-08-18T09:08:32.720Z,22.94
2022-08-18T09:11:18.985Z,22.93
2022-08-18T09:14:14.530Z,23.01
2022-08-18T09:16:53.984Z,23.01
2022-08-18T09:19:40.628Z,23.24
2022-08-18T09:22:20.940Z,23.41
2022-08-18T09:24:51.581Z,23.57
2022-08-18T09:27:48.673Z,23.61
2022-08-18T09:30:42.420Z,23.52
2022-08-18T09:33:22.909Z,23.55
2022-08-18T09:36:10.529Z,23.67
2022-08-18T09:39:08.653Z,23.71
2022-08-18T09:44:57.492Z,23.64
2022-08-18T09:48:03.591Z,23.76
2022-08-18T09:50:55.200Z,23.69
2022-08-18T09:53:54.347Z,23.68
2022-08-18T09:57:19.523Z,23.71
2022-08-18T10:00:12.876Z,23.71
2022-08-18T10:03:31.416Z,23.85
2022-08-18T10:09:36.517Z,24.19
2022-08-18T10:12:43.636Z,24.25
2022-08-18T10:15:39.430Z,24.34
2022-08-18T10:18:42.809Z,24.45
2022-08-18T10:21:21.055Z,24.37
2022-08-18T10:24:14.826Z,24.40
2022-08-18T10:27:10.876Z,24.64
2022-08-18T10:29:53.329Z,24.57
2022-08-18T10:32:54.307Z,24.55
2022-08-18T10:35:53.343Z,24.50
2022-08-18T10:38:30.761Z,24.45
2022-08-18T10:41:09.851Z,24.35
2022-08-18T10:43:46.187Z,24.44
2022-08-18T10:46:29.423Z,24.48
2022-08-18T10:49:04.476Z,24.56
2022-08-18T10:51:59.340Z,24.68
2022-08-18T10:54:51.092Z,24.56
2022-08-18T10:57:32.807Z,24.88
2022-08-18T11:00:09.704Z,24.79
2022-08-18T11:03:30.125Z,24.90
2022-08-18T11:06:03.734Z,24.95
2022-08-18T11:08:36.907Z,25.06
2022-08-18T11:11:34.594Z,25.13
2022-08-18T11:14:26.976Z,25.13
2022-08-18T11:17:04.150Z,25.17
2022-08-18T11:19:42.077Z,25.35
2022-08-18T11:22:31.077Z,25.42
2022-08-18T11:25:01.306Z,25.39
2022-08-18T11:27:35.271Z,25.36
2022-08-18T11:30:06.191Z,25.32
2022-08-18T11:32:51.869Z,25.27
2022-08-18T11:35:25.102Z,25.20
2022-08-18T11:37:58.306Z,25.16
2022-08-18T11:46:29.635Z,25.31
2022-08-18T11:49:02.149Z,25.28
2022-08-18T11:51:34.521Z,25.29
2022-08-18T11:54:23.204Z,25.34
2022-08-18T11:56:51.428Z,25.39
2022-08-18T12:02:23.816Z,25.28
2022-08-18T12:04:55.052Z,25.22
2022-08-18T12:07:29.838Z,25.12
2022-08-18T12:10:19.408Z,25.04
2022-08-18T12:12:53.666Z,25.05
2022-08-18T12:15:43.885Z,24.91
2022-08-18T12:18:25.937Z,25.03
2022-08-18T12:20:58.313Z,25.01
2022-08-18T12:23:26.649Z,24.98
2022-08-18T12:25:54.745Z,24.70
2022-08-18T12:28:22.834Z,24.85
2022-08-18T12:30:57.505Z,25.08
2022-08-18T12:33:47.814Z,25.10
2022-08-18T12:36:19.034Z,25.14
2022-08-18T12:38:52.303Z,25.12
2022-08-18T12:41:24.616Z,25.00
2022-08-18T12:43:58.419Z,25.32
2022-08-18T12:46:27.848Z,25.55
2022-08-18T12:49:00.727Z,25.59
2022-08-18T12:51:31.790Z,25.76
2022-08-18T12:54:02.910Z,26.36
2022-08-18T12:56:32.714Z,26.86
2022-08-18T12:59:06.876Z,27.08
2022-08-18T13:01:37.667Z,27.59
2022-08-18T13:04:12.124Z,27.39
2022-08-18T13:06:59.194Z,27.26
2022-08-18T13:09:47.984Z,27.38
2022-08-18T13:12:19.234Z,27.59
2022-08-18T13:14:49.741Z,27.78
2022-08-18T13:17:32.639Z,27.26
2022-08-18T13:20:07.778Z,27.28
2022-08-18T13:22:40.316Z,27.36
2022-08-18T13:25:11.003Z,27.14
2022-08-18T13:30:30.904Z,27.19
2022-08-18T13:33:05.464Z,26.81
2022-08-18T13:35:44.589Z,27.07
2022-08-18T13:38:20.667Z,27.20
2022-08-18T13:40:50.683Z,27.16
2022-08-18T13:43:23.547Z,27.04
2022-08-18T13:45:53.271Z,27.04
2022-08-18T13:48:25.497Z,27.06
2022-08-18T13:50:56.015Z,27.13
2022-08-18T13:53:27.618Z,27.14
2022-08-18T13:55:57.940Z,27.08
2022-08-18T13:58:27.267Z,27.14
2022-08-18T14:01:22.877Z,27.19
2022-08-18T14:03:48.105Z,27.03
2022-08-18T14:06:21.956Z,26.89
2022-08-18T14:08:52.968Z,26.67
2022-08-18T14:11:23.720Z,26.58
2022-08-18T14:13:54.114Z,26.50
2022-08-18T14:16:23.215Z,26.43
2022-08-18T14:19:12.591Z,26.35
2022-08-18T14:22:02.987Z,26.22
2022-08-18T14:24:50.767Z,26.36
2022-08-18T14:27:19.786Z,26.47
2022-08-18T14:29:49.753Z,26.52
2022-08-18T14:32:29.045Z,26.62
2022-08-18T14:35:00.526Z,26.71
2022-08-18T14:37:29.272Z,26.79
2022-08-18T14:39:59.314Z,26.76
2022-08-18T14:42:40.917Z,26.75
2022-08-18T14:45:26.566Z,26.79
2022-08-18T14:47:59.352Z,26.81
2022-08-18T14:50:27.807Z,26.69
2022-08-18T14:52:55.652Z,26.70
2022-08-18T14:55:25.029Z,26.53
2022-08-18T14:57:54.845Z,26.66
2022-08-18T15:00:28.056Z,26.75
2022-08-18T15:02:57.406Z,26.82
2022-08-18T15:05:32.136Z,26.91
2022-08-18T15:08:04.787Z,26.97
2022-08-18T15:10:34.497Z,27.03
2022-08-18T15:13:03.831Z,26.81
2022-08-18T15:15:42.227Z,26.87
2022-08-18T15:18:23.263Z,26.94
2022-08-18T15:21:10.204Z,26.95
2022-08-18T15:23:58.292Z,26.93
2022-08-18T15:26:27.802Z,26.72
2022-08-18T15:29:00.218Z,26.92
2022-08-18T15:34:20.604Z,26.83
2022-08-18T15:36:49.411Z,26.82
2022-08-18T15:39:17.991Z,26.84
2022-08-18T15:41:49.317Z,26.82
2022-08-18T15:44:19.630Z,26.78
2022-08-18T15:46:53.066Z,26.81
2022-08-18T15:49:21.906Z,26.82
2022-08-18T15:51:56.960Z,26.85
2022-08-18T15:54:25.334Z,26.94
2022-08-18T15:56:58.138Z,26.90
2022-08-18T15:59:26.905Z,26.94
2022-08-18T16:02:02.384Z,26.96
2022-08-18T16:04:30.300Z,26.81
2022-08-18T16:06:59.583Z,26.99
2022-08-18T16:09:27.412Z,26.87
2022-08-18T16:12:00.271Z,26.93
2022-08-18T16:14:28.339Z,26.91
2022-08-18T16:16:56.260Z,26.70
2022-08-18T16:19:25.609Z,26.83
2022-08-18T16:21:56.553Z,26.81
2022-08-18T16:24:24.556Z,26.77
2022-08-18T16:26:52.445Z,26.78
2022-08-18T16:29:24.038Z,26.70
2022-08-18T16:31:52.399Z,26.72
2022-08-18T16:34:22.711Z,26.70
2022-08-18T16:36:50.574Z,26.22
2022-08-18T16:39:19.594Z,26.62
2022-08-18T16:41:49.947Z,26.59
2022-08-18T16:44:17.667Z,26.55
2022-08-18T16:46:46.852Z,26.49
2022-08-18T16:49:14.825Z,26.34
2022-08-18T16:51:45.308Z,26.40
2022-08-18T16:54:14.490Z,26.39
2022-08-18T16:56:42.235Z,26.38
2022-08-18T16:59:27.790Z,26.35
2022-08-18T17:02:14.591Z,26.32
2022-08-18T17:04:42.448Z,26.28
2022-08-18T17:07:10.247Z,26.24
2022-08-18T17:09:38.014Z,26.19
2022-08-18T17:12:06.227Z,26.17
2022-08-18T17:14:34.142Z,26.12
2022-08-18T17:17:03.518Z,26.08
2022-08-18T17:19:34.250Z,26.05
2022-08-18T17:22:03.374Z,26.03
2022-08-18T17:24:32.532Z,25.99
2022-08-18T17:27:26.105Z,25.94
2022-08-18T17:30:01.732Z,25.89
2022-08-18T17:35:15.159Z,25.82
2022-08-18T17:37:52.173Z,25.78
2022-08-18T17:40:28.594Z,25.75
2022-08-18T17:42:57.249Z,25.56
2022-08-18T17:45:25.335Z,25.67
2022-08-18T17:48:01.209Z,25.46
2022-08-18T17:50:52.103Z,25.64
2022-08-18T17:53:21.386Z,25.47
2022-08-18T17:55:55.100Z,25.59
2022-08-18T17:58:30.664Z,25.57
2022-08-18T18:00:58.464Z,25.53
2022-08-18T18:03:28.348Z,25.50
2022-08-18T18:06:03.708Z,25.47
2022-08-18T18:08:52.987Z,25.47
2022-08-18T18:11:31.268Z,25.46
2022-08-18T18:14:00.441Z,25.43
2022-08-18T18:16:34.902Z,25.26
2022-08-18T18:19:07.320Z,25.39
2022-08-18T18:22:00.703Z,25.36
2022-08-18T18:24:32.112Z,25.26
2022-08-18T18:27:00.137Z,25.32
2022-08-18T18:29:35.626Z,25.29
2022-08-18T18:32:07.682Z,25.24
2022-08-18T18:34:40.140Z,25.21
2022-08-18T18:37:26.254Z,25.19
2022-08-18T18:39:59.598Z,25.16
2022-08-18T18:42:29.491Z,25.16
2022-08-18T18:44:59.562Z,25.13
2022-08-18T18:47:44.326Z,25.12
2022-08-18T18:50:21.883Z,25.09
2022-08-18T18:53:00.193Z,25.03
2022-08-18T18:55:32.045Z,24.97
2022-08-18T18:58:12.150Z,24.67
2022-08-18T19:00:53.627Z,24.86
2022-08-18T19:03:27.283Z,24.84
2022-08-18T19:06:13.099Z,24.86
2022-08-18T19:08:50.513Z,24.80
2022-08-18T19:11:25.822Z,24.77
2022-08-18T19:14:00.641Z,24.72
2022-08-18T19:16:34.668Z,24.64
2022-08-18T19:19:36.327Z,24.64
2022-08-18T19:22:06.438Z,24.61
2022-08-18T19:24:40.248Z,24.66
2022-08-18T19:27:15.996Z,24.55
2022-08-18T19:29:47.400Z,24.61
2022-08-18T19:32:19.775Z,24.60
2022-08-18T19:34:51.489Z,24.60
2022-08-18T19:37:31.253Z,24.48
2022-08-18T19:40:09.244Z,24.64
2022-08-18T19:42:42.815Z,24.59
2022-08-18T19:45:23.382Z,24.59
2022-08-18T19:47:57.810Z,24.36
2022-08-18T19:50:32.479Z,24.54
2022-08-18T19:53:20.446Z,24.53
2022-08-18T19:56:12.363Z,24.61
2022-08-18T19:59:15.544Z,24.63
2022-08-18T20:01:58.500Z,24.52
2022-08-18T20:04:43.623Z,24.60
2022-08-18T20:07:31.372Z,24.51
2022-08-18T20:10:15.579Z,24.61
2022-08-18T20:13:01.002Z,24.60
2022-08-18T20:15:31.078Z,24.57
2022-08-18T20:18:06.422Z,24.50
2022-08-18T20:20:38.098Z,24.53
2022-08-18T20:23:31.166Z,24.53
2022-08-18T20:26:00.621Z,24.50
2022-08-18T20:28:46.125Z,24.40
2022-08-18T20:31:17.444Z,24.35
2022-08-18T20:33:54.141Z,24.31
2022-08-18T20:36:29.436Z,24.26
2022-08-18T20:38:59.106Z,24.30
2022-08-18T20:41:47.180Z,24.30
2022-08-18T20:44:52.053Z,24.26
2022-08-18T20:47:42.599Z,24.30
2022-08-18T20:50:36.631Z,24.29
2022-08-18T20:53:13.075Z,24.27
2022-08-18T20:55:49.222Z,24.23
2022-08-18T20:58:27.674Z,24.15
2022-08-18T21:00:58.205Z,24.21
2022-08-18T21:03:36.632Z,24.20
2022-08-18T21:06:05.461Z,24.18
2022-08-18T21:08:35.768Z,24.14
2022-08-18T21:11:09.180Z,24.04
2022-08-18T21:13:51.483Z,24.01
2022-08-18T21:16:37.959Z,23.62
2022-08-18T21:19:13.787Z,23.89
2022-08-18T21:21:46.775Z,23.85
2022-08-18T21:24:28.152Z,23.84
2022-08-18T21:26:58.583Z,23.79
2022-08-18T21:29:34.489Z,23.77
2022-08-18T21:32:19.432Z,23.72
2022-08-18T21:34:50.979Z,23.68
2022-08-18T21:37:20.224Z,23.65
2022-08-18T21:39:51.090Z,23.64
2022-08-18T21:42:22.255Z,23.64
2022-08-18T21:44:54.286Z,23.63
2022-08-18T21:47:26.130Z,23.64
2022-08-18T21:50:08.277Z,23.60
2022-08-18T21:52:38.522Z,23.59
2022-08-18T21:55:14.787Z,23.62
2022-08-18T21:57:52.725Z,23.62
2022-08-18T22:00:26.914Z,23.61
2022-08-18T22:03:12.536Z,23.61
2022-08-18T22:05:58.683Z,23.62
2022-08-18T22:08:29.736Z,23.55
2022-08-18T22:11:59.911Z,23.67
2022-08-18T22:14:53.502Z,23.63
2022-08-18T22:17:31.530Z,23.56
2022-08-18T22:20:38.684Z,23.53
2022-08-18T22:23:43.832Z,23.47
2022-08-18T22:26:18.890Z,23.52
2022-08-18T22:28:59.729Z,23.50
2022-08-18T22:31:30.877Z,23.57
2022-08-18T22:34:07.233Z,23.58
2022-08-18T22:36:37.443Z,23.58
2022-08-18T22:39:08.682Z,23.46
2022-08-18T22:41:36.756Z,23.47
2022-08-18T22:44:05.506Z,23.42
2022-08-18T22:46:33.696Z,23.40
2022-08-18T22:49:03.386Z,23.37
2022-08-18T22:51:32.932Z,23.31
2022-08-18T22:54:00.845Z,23.30
2022-08-18T22:56:34.428Z,23.20
2022-08-18T22:59:12.150Z,23.24
2022-08-18T23:01:45.464Z,23.21
2022-08-18T23:04:16.300Z,23.18
2022-08-18T23:06:51.128Z,23.14
2022-08-18T23:09:25.111Z,23.08
2022-08-18T23:11:54.622Z,23.05
2022-08-18T23:14:23.062Z,23.00
2022-08-18T23:16:51.137Z,22.99
2022-08-18T23:19:22.177Z,22.97
2022-08-18T23:21:51.618Z,22.95
2022-08-18T23:24:21.194Z,22.69
2022-08-18T23:26:49.240Z,22.86
2022-08-18T23:29:17.224Z,22.86
2022-08-18T23:31:46.006Z,22.85
2022-08-18T23:34:17.225Z,22.71
2022-08-18T23:36:52.413Z,22.78
2022-08-18T23:39:20.216Z,22.77
2022-08-18T23:41:48.130Z,22.77
2022-08-18T23:44:16.718Z,22.77
2022-08-18T23:46:44.835Z,22.68
2022-08-18T23:49:14.796Z,22.72
2022-08-18T23:51:46.074Z,22.61
2022-08-18T23:54:17.718Z,22.71
2022-08-18T23:56:47.611Z,22.68
2022-08-18T23:59:17.302Z,22.58
